createdAt,value
2022-10-13T00:01:16.640Z,85.02
2022-10-13T00:03:48.607Z,84.91
2022-10-13T00:06:19.532Z,84.75
2022-10-13T00:08:48.362Z,85.06
2022-10-13T00:11:22.123Z,85.17
2022-10-13T00:13:50.362Z,84.95
2022-10-13T00:16:20.681Z,85.23
2022-10-13T00:18:49.626Z,85.34
2022-10-13T00:21:21.622Z,85.22
2022-10-13T00:23:50.851Z,85.52
2022-10-13T00:26:19.410Z,85.46
2022-10-13T00:28:52.051Z,85.17
2022-10-13T00:31:23.329Z,85.25
2022-10-13T00:33:52.882Z,85.47
2022-10-13T00:36:23.018Z,85.45
2022-10-13T00:38:52.589Z,85.63
2022-10-13T00:41:21.243Z,85.60
2022-10-13T00:44:01.315Z,85.86
2022-10-13T00:46:35.359Z,85.94
2022-10-13T00:49:14.378Z,85.88
2022-10-13T00:51:47.241Z,85.82
2022-10-13T00:54:20.818Z,85.83
2022-10-13T00:56:51.566Z,85.73
2022-10-13T00:59:23.593Z,85.74
2022-10-13T01:01:52.066Z,85.84
2022-10-13T01:04:23.550Z,86.06
2022-10-13T01:06:52.602Z,86.04
2022-10-13T01:09:20.396Z,86.23
2022-10-13T01:12:11.120Z,86.24
2022-10-13T01:14:46.373Z,86.44
2022-10-13T01:17:26.302Z,86.37
2022-10-13T01:20:22.895Z,86.52
2022-10-13T01:23:28.734Z,86.42
2022-10-13T01:26:15.304Z,86.22
2022-10-13T01:29:00.423Z,86.33
2022-10-13T01:31:37.029Z,86.46
2022-10-13T01:34:20.714Z,86.45
2022-10-13T01:37:03.034Z,86.38
2022-10-13T01:39:57.727Z,86.45
2022-10-13T01:42:34.363Z,86.41
2022-10-13T01:45:03.689Z,86.52
2022-10-13T01:47:35.445Z,86.44
2022-10-13T01:50:04.468Z,86.45
2022-10-13T01:52:37.439Z,86.36
2022-10-13T01:55:08.387Z,86.29
2022-10-13T01:57:44.894Z,86.44
2022-10-13T02:00:16.671Z,86.36
2022-10-13T02:03:03.016Z,86.25
2022-10-13T02:05:36.710Z,86.09
2022-10-13T02:08:17.284Z,86.16
2022-10-13T02:10:49.656Z,86.37
2022-10-13T02:13:22.440Z,86.74
2022-10-13T02:15:54.384Z,86.15
2022-10-13T02:18:27.642Z,85.97
2022-10-13T02:20:56.014Z,86.11
2022-10-13T02:23:24.434Z,86.14
2022-10-13T02:25:52.343Z,85.94
2022-10-13T02:28:20.439Z,85.88
2022-10-13T02:30:48.995Z,85.92
2022-10-13T02:33:16.889Z,85.65
2022-10-13T02:35:44.863Z,85.65
2022-10-13T02:38:13.673Z,85.79
2022-10-13T02:40:41.483Z,85.95
2022-10-13T02:43:09.503Z,85.74
2022-10-13T02:45:37.293Z,85.68
2022-10-13T02:48:05.469Z,85.54
2022-10-13T02:50:33.356Z,85.70
2022-10-13T02:53:01.230Z,85.90
2022-10-13T02:55:29.310Z,86.12
2022-10-13T02:57:57.593Z,86.05
2022-10-13T03:00:26.121Z,86.19
2022-10-13T03:02:54.305Z,86.18
2022-10-13T03:05:22.362Z,86.29
2022-10-13T03:07:50.298Z,86.33
2022-10-13T03:10:18.259Z,86.52
2022-10-13T03:12:46.046Z,86.95
2022-10-13T03:15:14.110Z,87.14
2022-10-13T03:17:41.899Z,87.64
2022-10-13T03:20:10.131Z,87.93
2022-10-13T03:22:37.863Z,88.20
2022-10-13T03:25:06.343Z,88.05
2022-10-13T03:27:34.371Z,88.03
2022-10-13T03:30:02.673Z,88.15
2022-10-13T03:32:31.736Z,88.21
2022-10-13T03:34:59.609Z,88.23
2022-10-13T03:37:29.678Z,88.32
2022-10-13T03:39:57.572Z,87.92
2022-10-13T03:42:25.431Z,88.23
2022-10-13T03:44:56.361Z,88.63
2022-10-13T03:47:24.549Z,88.74
2022-10-13T03:49:55.242Z,89.02
2022-10-13T03:52:23.284Z,89.03
2022-10-13T03:54:51.240Z,88.69
2022-10-13T03:57:19.040Z,88.78
2022-10-13T03:59:47.176Z,88.92
2022-10-13T04:02:15.044Z,89.01
2022-10-13T04:04:42.949Z,88.80
2022-10-13T04:07:10.663Z,88.55
2022-10-13T04:09:38.499Z,88.37
2022-10-13T04:12:06.369Z,88.28
2022-10-13T04:14:34.248Z,87.71
2022-10-13T04:17:02.044Z,87.68
2022-10-13T04:19:29.883Z,87.78
2022-10-13T04:21:57.656Z,87.83
2022-10-13T04:24:25.431Z,87.71
2022-10-13T04:26:53.294Z,87.99
2022-10-13T04:29:21.112Z,88.24
2022-10-13T04:31:48.987Z,88.42
2022-10-13T04:34:16.726Z,88.45
2022-10-13T04:36:44.464Z,88.68
2022-10-13T04:39:12.238Z,88.65
2022-10-13T04:41:40.044Z,88.66
2022-10-13T04:44:08.786Z,88.66
2022-10-13T04:46:36.600Z,88.55
2022-10-13T04:49:04.845Z,88.49
2022-10-13T04:51:32.904Z,88.53
2022-10-13T04:54:02.772Z,88.23
2022-10-13T04:56:30.592Z,88.34
2022-10-13T04:58:58.355Z,88.18
2022-10-13T05:01:26.797Z,87.95
2022-10-13T05:03:56.883Z,87.91
2022-10-13T05:06:30.437Z,87.84
2022-10-13T05:08:58.586Z,87.78
2022-10-13T05:11:28.560Z,87.77
2022-10-13T05:13:57.475Z,87.62
2022-10-13T05:16:25.803Z,87.75
2022-10-13T05:18:55.185Z,87.96
2022-10-13T05:21:26.811Z,87.87
2022-10-13T05:23:56.945Z,87.79
2022-10-13T05:26:29.023Z,88.07
2022-10-13T05:29:01.432Z,88.07
2022-10-13T05:31:31.239Z,88.39
2022-10-13T05:33:59.793Z,88.43
2022-10-13T05:36:31.428Z,88.44
2022-10-13T05:39:01.917Z,88.48
2022-10-13T05:41:30.995Z,88.33
2022-10-13T05:44:04.459Z,88.30
2022-10-13T05:46:32.483Z,88.39
2022-10-13T05:49:00.355Z,88.24
2022-10-13T05:51:35.081Z,88.52
2022-10-13T05:54:09.166Z,88.44
2022-10-13T05:56:44.747Z,88.43
2022-10-13T05:59:15.153Z,88.39
2022-10-13T06:01:44.271Z,88.18
2022-10-13T06:04:19.457Z,88.38
2022-10-13T06:06:49.773Z,88.40
2022-10-13T06:09:18.503Z,88.33
2022-10-13T06:11:46.498Z,88.69
2022-10-13T06:14:14.381Z,88.84
2022-10-13T06:16:42.324Z,88.84
2022-10-13T06:19:10.189Z,88.72
2022-10-13T06:21:37.976Z,88.69
2022-10-13T06:24:06.039Z,88.60
2022-10-13T06:26:33.897Z,88.79
2022-10-13T06:29:01.691Z,88.99
2022-10-13T06:31:30.070Z,89.16
2022-10-13T06:33:59.091Z,88.96
2022-10-13T06:36:27.324Z,89.40
2022-10-13T06:38:55.378Z,89.09
2022-10-13T06:41:23.374Z,89.33
2022-10-13T06:43:51.280Z,89.50
2022-10-13T06:46:19.144Z,89.71
2022-10-13T06:48:50.071Z,89.83
2022-10-13T06:51:18.215Z,89.42
2022-10-13T06:53:46.153Z,89.08
2022-10-13T06:56:14.542Z,89.25
2022-10-13T06:58:42.211Z,89.14
2022-10-13T07:01:13.274Z,89.27
2022-10-13T07:03:41.211Z,89.29
2022-10-13T07:06:08.995Z,89.63
2022-10-13T07:08:36.828Z,89.37
2022-10-13T07:11:16.422Z,89.20
2022-10-13T07:13:46.678Z,89.65
2022-10-13T07:16:15.849Z,89.84
2022-10-13T07:18:44.234Z,89.79
2022-10-13T07:21:12.118Z,89.66
2022-10-13T07:23:41.105Z,89.50
2022-10-13T07:26:15.938Z,89.29
2022-10-13T07:28:44.954Z,89.34
2022-10-13T07:31:15.974Z,89.56
2022-10-13T07:33:46.016Z,89.46
2022-10-13T07:36:14.482Z,89.32
2022-10-13T07:38:42.328Z,89.43
2022-10-13T07:41:12.578Z,89.10
2022-10-13T07:43:40.808Z,89.01
2022-10-13T07:46:08.995Z,88.84
2022-10-13T07:48:36.926Z,88.67
2022-10-13T07:51:10.393Z,88.58
2022-10-13T07:53:38.988Z,88.19
2022-10-13T07:56:08.862Z,87.93
2022-10-13T07:58:38.273Z,87.66
2022-10-13T08:01:07.013Z,87.55
2022-10-13T08:06:05.948Z,87.75
2022-10-13T08:08:34.904Z,87.70
2022-10-13T08:11:06.768Z,87.89
2022-10-13T08:13:35.424Z,88.00
2022-10-13T08:16:03.937Z,88.13
2022-10-13T08:18:32.316Z,88.00
2022-10-13T08:23:50.852Z,87.31
2022-10-13T08:26:22.598Z,87.20
2022-10-13T08:29:09.464Z,87.11
2022-10-13T08:31:39.003Z,87.01
2022-10-13T08:34:07.264Z,86.83
2022-10-13T08:36:35.308Z,86.73
2022-10-13T08:39:04.027Z,86.81
2022-10-13T08:41:36.382Z,86.99
2022-10-13T08:47:02.503Z,86.60
2022-10-13T08:49:30.854Z,86.37
2022-10-13T08:51:59.173Z,86.64
2022-10-13T08:54:27.111Z,86.60
2022-10-13T08:56:55.466Z,86.61
2022-10-13T08:59:23.585Z,86.44
2022-10-13T09:01:55.937Z,86.64
2022-10-13T09:04:30.050Z,86.31
2022-10-13T09:07:10.208Z,86.08
2022-10-13T09:09:38.526Z,86.18
2022-10-13T09:12:06.833Z,86.54
2022-10-13T09:14:37.372Z,86.92
2022-10-13T09:17:26.350Z,86.87
2022-10-13T09:20:18.353Z,86.94
2022-10-13T09:23:04.866Z,86.37
2022-10-13T09:25:44.589Z,86.79
2022-10-13T09:28:23.484Z,86.94
2022-10-13T09:31:25.654Z,86.84
2022-10-13T09:34:23.260Z,86.32
2022-10-13T09:37:16.743Z,86.59
2022-10-13T09:39:44.899Z,86.73
2022-10-13T09:42:29.157Z,86.74
2022-10-13T09:45:00.315Z,86.56
2022-10-13T09:47:31.870Z,86.47
2022-10-13T09:50:25.024Z,85.55
2022-10-13T09:52:54.292Z,85.25
2022-10-13T09:55:36.293Z,85.38
2022-10-13T09:58:17.501Z,85.42
2022-10-13T10:00:46.159Z,84.85
2022-10-13T10:03:20.084Z,84.64
2022-10-13T10:05:58.157Z,84.88
2022-10-13T10:09:01.547Z,85.32
2022-10-13T10:11:33.758Z,85.48
2022-10-13T10:14:36.511Z,85.92
2022-10-13T10:17:07.017Z,85.71
2022-10-13T10:19:47.894Z,85.25
2022-10-13T10:22:28.703Z,85.13
2022-10-13T10:25:22.552Z,84.56
2022-10-13T10:28:16.871Z,83.43
2022-10-13T10:31:20.897Z,83.22
2022-10-13T10:33:48.781Z,83.79
2022-10-13T10:36:31.392Z,83.97
2022-10-13T10:39:32.351Z,82.97
2022-10-13T10:42:07.896Z,82.81
2022-10-13T10:47:27.434Z,83.11
2022-10-13T10:50:01.876Z,82.70
2022-10-13T10:53:09.218Z,81.92
2022-10-13T10:55:51.152Z,80.92
2022-10-13T10:58:56.873Z,80.51
2022-10-13T11:01:48.554Z,80.68
2022-10-13T11:04:38.744Z,80.79
2022-10-13T11:07:29.830Z,81.22
2022-10-13T11:09:57.731Z,81.19
2022-10-13T11:12:44.948Z,80.93
2022-10-13T11:15:22.618Z,80.96
2022-10-13T11:17:50.894Z,81.01
2022-10-13T11:20:21.389Z,80.77
2022-10-13T11:22:58.480Z,80.47
2022-10-13T11:25:41.722Z,80.99
2022-10-13T11:28:22.089Z,81.15
2022-10-13T11:30:57.617Z,81.13
2022-10-13T11:33:40.792Z,81.11
2022-10-13T11:36:48.678Z,81.19
2022-10-13T11:39:28.634Z,80.94
2022-10-13T11:42:12.186Z,80.66
2022-10-13T11:45:02.279Z,80.43
2022-10-13T11:47:55.815Z,80.53
2022-10-13T11:50:39.084Z,81.05
2022-10-13T11:53:19.137Z,80.81
2022-10-13T11:55:53.790Z,80.59
2022-10-13T11:58:27.237Z,80.56
2022-10-13T12:01:13.599Z,80.62
2022-10-13T12:03:44.450Z,79.87
2022-10-13T12:06:35.054Z,79.53
2022-10-13T12:09:14.590Z,79.09
2022-10-13T12:11:43.748Z,78.91
2022-10-13T12:14:24.509Z,79.18
2022-10-13T12:19:27.153Z,78.87
2022-10-13T12:21:57.864Z,78.45
2022-10-13T12:24:29.160Z,78.05
2022-10-13T12:26:57.803Z,77.59
2022-10-13T12:29:33.390Z,77.84
2022-10-13T12:32:18.069Z,77.68
2022-10-13T12:34:45.924Z,77.06
2022-10-13T12:37:36.882Z,77.27
2022-10-13T12:40:05.610Z,76.86
2022-10-13T12:42:36.562Z,76.17
2022-10-13T12:45:06.293Z,76.53
2022-10-13T12:47:40.404Z,76.08
2022-10-13T12:50:29.617Z,75.50
2022-10-13T12:53:21.973Z,75.29
2022-10-13T12:56:01.352Z,75.35
2022-10-13T12:58:34.939Z,74.62
2022-10-13T13:01:27.552Z,74.36
2022-10-13T13:03:59.002Z,74.49
2022-10-13T13:06:30.309Z,74.62
2022-10-13T13:09:30.351Z,74.43
2022-10-13T13:12:13.349Z,74.44
2022-10-13T13:14:43.941Z,74.32
2022-10-13T13:17:13.074Z,74.38
2022-10-13T13:19:42.939Z,74.97
2022-10-13T13:22:11.208Z,75.05
2022-10-13T13:24:40.465Z,75.30
2022-10-13T13:27:27.178Z,75.30
2022-10-13T13:29:55.679Z,75.08
2022-10-13T13:32:27.051Z,74.71
2022-10-13T13:34:54.851Z,75.01
2022-10-13T13:37:58.409Z,75.10
2022-10-13T13:40:28.337Z,74.82
2022-10-13T13:42:56.299Z,74.82
2022-10-13T13:45:27.397Z,74.52
2022-10-13T13:47:59.680Z,74.98
2022-10-13T13:50:34.534Z,75.16
2022-10-13T13:53:03.026Z,75.30
2022-10-13T13:55:31.610Z,75.55
2022-10-13T13:57:59.491Z,75.99
2022-10-13T14:00:27.259Z,76.02
2022-10-13T14:02:58.054Z,76.30
2022-10-13T14:05:26.132Z,76.59
2022-10-13T14:07:56.781Z,76.83
2022-10-13T14:10:26.067Z,76.77
2022-10-13T14:12:53.953Z,77.01
2022-10-13T14:15:24.499Z,77.03
2022-10-13T14:17:54.786Z,77.21
2022-10-13T14:20:23.496Z,77.41
2022-10-13T14:22:51.334Z,77.32
2022-10-13T14:25:19.558Z,77.42
2022-10-13T14:27:47.368Z,77.46
2022-10-13T14:30:15.469Z,77.56
2022-10-13T14:32:43.377Z,77.34
2022-10-13T14:35:11.369Z,77.38
2022-10-13T14:37:39.665Z,77.39
2022-10-13T14:40:08.126Z,77.73
2022-10-13T14:42:35.901Z,77.96
2022-10-13T14:45:06.310Z,78.08
2022-10-13T14:47:34.238Z,77.78
2022-10-13T14:50:02.097Z,78.05
2022-10-13T14:52:29.949Z,77.86
2022-10-13T14:54:57.880Z,78.01
2022-10-13T14:57:25.750Z,77.73
2022-10-13T14:59:56.773Z,77.62
2022-10-13T15:02:27.525Z,77.80
2022-10-13T15:04:55.369Z,78.01
2022-10-13T15:07:23.438Z,78.10
2022-10-13T15:10:04.267Z,78.08
2022-10-13T15:12:33.147Z,77.98
2022-10-13T15:15:00.972Z,77.92
2022-10-13T15:17:30.836Z,77.81
2022-10-13T15:19:58.891Z,77.97
2022-10-13T15:22:26.837Z,77.86
2022-10-13T15:24:54.743Z,77.99
2022-10-13T15:27:23.366Z,78.24
2022-10-13T15:29:51.130Z,78.43
2022-10-13T15:32:20.416Z,78.63
2022-10-13T15:34:48.539Z,78.56
2022-10-13T15:37:16.329Z,78.71
2022-10-13T15:39:44.112Z,78.74
2022-10-13T15:42:12.159Z,78.86
2022-10-13T15:45:08.181Z,78.78
2022-10-13T15:47:27.906Z,78.80
2022-10-13T15:49:55.781Z,79.13
2022-10-13T15:52:24.081Z,79.19
2022-10-13T15:54:52.236Z,79.36
2022-10-13T15:57:20.051Z,79.58
2022-10-13T15:59:47.882Z,79.67
2022-10-13T16:02:15.820Z,79.61
2022-10-13T16:04:43.517Z,79.61
2022-10-13T16:07:11.433Z,79.69
2022-10-13T16:09:39.160Z,79.73
2022-10-13T16:12:07.189Z,79.81
2022-10-13T16:14:35.035Z,79.83
2022-10-13T16:17:03.793Z,80.12
2022-10-13T16:19:31.563Z,79.99
2022-10-13T16:21:59.368Z,79.98
2022-10-13T16:24:28.526Z,80.26
2022-10-13T16:26:56.472Z,80.25
2022-10-13T16:29:24.227Z,80.15
2022-10-13T16:31:52.578Z,80.20
2022-10-13T16:34:21.340Z,80.27
2022-10-13T16:36:49.667Z,80.46
2022-10-13T16:39:17.776Z,80.90
2022-10-13T16:41:46.830Z,81.00
2022-10-13T16:44:15.131Z,80.85
2022-10-13T16:46:43.416Z,81.00
2022-10-13T16:49:11.794Z,81.04
2022-10-13T16:51:39.545Z,80.90
2022-10-13T16:54:07.451Z,81.14
2022-10-13T16:56:35.199Z,81.20
2022-10-13T16:59:05.336Z,81.16
2022-10-13T17:01:34.710Z,81.16
2022-10-13T17:04:04.022Z,81.50
2022-10-13T17:06:32.352Z,81.63
2022-10-13T17:09:03.291Z,81.88
2022-10-13T17:11:32.764Z,82.01
2022-10-13T17:14:01.653Z,82.05
2022-10-13T17:16:30.505Z,82.24
2022-10-13T17:18:59.021Z,82.22
2022-10-13T17:21:26.858Z,82.05
2022-10-13T17:23:56.505Z,81.90
2022-10-13T17:26:24.617Z,81.96
2022-10-13T17:28:53.552Z,81.81
2022-10-13T17:31:24.131Z,81.97
2022-10-13T17:33:52.876Z,82.38
2022-10-13T17:36:29.231Z,82.52
2022-10-13T17:39:04.292Z,82.52
2022-10-13T17:41:33.944Z,82.60
2022-10-13T17:44:01.685Z,82.74
2022-10-13T17:46:37.491Z,82.41
2022-10-13T17:49:09.877Z,82.37
2022-10-13T17:51:38.296Z,82.13
2022-10-13T17:54:09.083Z,82.32
2022-10-13T17:56:39.316Z,82.47
2022-10-13T17:59:07.432Z,82.52
2022-10-13T18:01:35.859Z,82.67
2022-10-13T18:04:11.324Z,82.65
2022-10-13T18:06:41.029Z,82.78
2022-10-13T18:09:15.533Z,82.98
2022-10-13T18:11:49.665Z,82.94
2022-10-13T18:14:20.131Z,83.22
2022-10-13T18:16:48.864Z,83.35
2022-10-13T18:19:17.157Z,83.68
2022-10-13T18:21:45.019Z,83.85
2022-10-13T18:24:12.949Z,84.31
2022-10-13T18:26:41.331Z,84.53
2022-10-13T18:29:11.365Z,84.71
2022-10-13T18:31:40.788Z,84.76
2022-10-13T18:34:12.369Z,84.96
2022-10-13T18:36:47.300Z,84.47
2022-10-13T18:39:20.683Z,84.01
2022-10-13T18:41:50.123Z,83.92
2022-10-13T18:44:19.369Z,84.00
2022-10-13T18:46:51.628Z,83.82
2022-10-13T18:49:30.729Z,83.73
2022-10-13T18:52:02.394Z,83.86
2022-10-13T18:54:31.129Z,83.69
2022-10-13T18:56:59.030Z,83.84
2022-10-13T18:59:27.076Z,83.80
2022-10-13T19:01:54.884Z,84.24
2022-10-13T19:04:22.756Z,84.39
2022-10-13T19:06:50.503Z,84.33
2022-10-13T19:09:18.320Z,84.24
2022-10-13T19:11:46.129Z,84.15
2022-10-13T19:14:14.018Z,84.18
2022-10-13T19:16:44.159Z,84.19
2022-10-13T19:19:12.423Z,84.10
2022-10-13T19:21:40.797Z,84.28
2022-10-13T19:24:09.887Z,84.46
2022-10-13T19:26:38.617Z,84.17
2022-10-13T19:29:12.896Z,84.10
2022-10-13T19:31:41.590Z,84.52
2022-10-13T19:34:10.922Z,84.69
2022-10-13T19:36:42.808Z,84.62
2022-10-13T19:39:23.163Z,84.74
2022-10-13T19:41:53.400Z,85.01
2022-10-13T19:44:23.739Z,85.11
2022-10-13T19:46:53.577Z,85.35
2022-10-13T19:49:26.293Z,85.48
2022-10-13T19:51:56.073Z,85.63
2022-10-13T19:54:24.541Z,85.87
2022-10-13T19:56:52.586Z,85.94
2022-10-13T19:59:20.421Z,85.67
2022-10-13T20:01:48.278Z,85.12
2022-10-13T20:04:18.695Z,84.87
2022-10-13T20:06:48.467Z,85.00
2022-10-13T20:09:17.675Z,85.22
2022-10-13T20:11:46.963Z,85.07
2022-10-13T20:14:15.019Z,85.28
2022-10-13T20:16:42.917Z,85.57
2022-10-13T20:19:13.706Z,86.08
2022-10-13T20:21:41.679Z,86.50
2022-10-13T20:24:09.586Z,86.59
2022-10-13T20:26:37.788Z,86.27
2022-10-13T20:29:05.673Z,85.88
2022-10-13T20:31:33.600Z,85.43
2022-10-13T20:34:01.864Z,85.54
2022-10-13T20:36:29.628Z,85.44
2022-10-13T20:38:57.980Z,85.29
2022-10-13T20:41:30.659Z,85.06
2022-10-13T20:44:01.076Z,85.11
2022-10-13T20:46:29.058Z,85.08
2022-10-13T20:49:13.461Z,84.95
2022-10-13T20:51:43.275Z,85.21
2022-10-13T20:54:13.857Z,85.83
2022-10-13T20:56:41.963Z,86.62
2022-10-13T20:59:12.656Z,86.77
2022-10-13T21:01:41.011Z,86.66
2022-10-13T21:04:09.684Z,86.75
2022-10-13T21:06:37.463Z,86.68
2022-10-13T21:09:06.390Z,86.50
2022-10-13T21:11:35.751Z,86.88
2022-10-13T21:14:06.934Z,87.23
2022-10-13T21:16:38.555Z,87.23
2022-10-13T21:19:07.013Z,87.14
2022-10-13T21:21:35.895Z,87.14
2022-10-13T21:24:06.722Z,87.14
2022-10-13T21:26:35.384Z,87.51
2022-10-13T21:29:03.985Z,87.91
2022-10-13T21:31:31.938Z,88.10
2022-10-13T21:34:01.019Z,88.10
2022-10-13T21:36:31.408Z,87.80
2022-10-13T21:39:02.680Z,87.80
2022-10-13T21:41:31.720Z,87.94
2022-10-13T21:43:59.712Z,88.00
2022-10-13T21:46:30.558Z,87.96
2022-10-13T21:49:01.417Z,87.91
2022-10-13T21:51:30.544Z,88.02
2022-10-13T21:54:05.912Z,88.12
2022-10-13T21:56:34.713Z,88.11
2022-10-13T21:59:02.822Z,88.31
2022-10-13T22:01:30.668Z,88.22
2022-10-13T22:04:00.798Z,88.00
2022-10-13T22:06:30.852Z,88.14
2022-10-13T22:09:01.991Z,87.91
2022-10-13T22:11:32.535Z,87.95
2022-10-13T22:14:00.423Z,87.89
2022-10-13T22:16:31.417Z,87.70
2022-10-13T22:18:59.253Z,87.73
2022-10-13T22:21:33.410Z,87.66
2022-10-13T22:24:03.580Z,88.13
2022-10-13T22:26:33.830Z,88.24
2022-10-13T22:34:15.020Z,88.50
2022-10-13T22:56:07.485Z,88.90
2022-10-13T22:57:07.092Z,89.15
2022-10-13T23:00:43.552Z,88.60
2022-10-13T23:20:28.099Z,88.99
2022-10-13T23:39:02.002Z,89.61
2022-10-13T23:42:09.111Z,89.91
